Time;durP1;ratioP1;P1;durP2;ratioP2;P2;SDS_P1;SDS_P2;PMS_P1;PMS_P2;Temp;Humidity;BMP_temperature;BMP_pressure;BME280_temperature;BME280_humidity;BME280_pressure;Samples;Min_cycle;Max_cycle;Signal;HPM_P1;HPM_P2
2022/06/15 00:02:18;;;;;;;6.53;2.00;;;14.20;99.90;;;;;;7336508;32;20224;-61
2022/06/15 00:06:23;;;;;;;6.18;2.30;;;14.10;99.90;;;;;;7340844;32;20196;-62
2022/06/15 00:10:25;;;;;;;10.07;2.28;;;14.00;99.90;;;;;;7343831;32;20107;-62
2022/06/15 00:14:28;;;;;;;4.47;1.95;;;14.00;99.90;;;;;;7337974;32;20736;-62
2022/06/15 00:18:31;;;;;;;8.50;2.40;;;14.00;99.90;;;;;;7341021;32;20262;-61
2022/06/15 00:22:33;;;;;;;11.20;2.35;;;14.00;99.90;;;;;;7340035;32;20153;-60
2022/06/15 00:26:35;;;;;;;10.80;2.37;;;13.90;99.90;;;;;;7342874;32;20785;-65
2022/06/15 00:30:37;;;;;;;6.47;2.45;;;13.80;99.90;;;;;;7336713;32;20586;-63
2022/06/15 00:34:38;;;;;;;6.40;1.98;;;13.70;99.90;;;;;;7342838;32;20130;-63
2022/06/15 00:38:52;;;;;;;8.27;2.25;;;13.70;99.90;;;;;;7345176;32;20141;-63
2022/06/15 00:42:54;;;;;;;7.75;2.10;;;13.60;99.90;;;;;;7342780;32;20115;-63
2022/06/15 00:47:04;;;;;;;6.95;2.10;;;13.60;99.90;;;;;;7345795;32;20198;-69
2022/06/15 00:51:07;;;;;;;5.95;2.25;;;13.50;99.90;;;;;;7347061;32;20233;-63
2022/06/15 00:55:15;;;;;;;7.97;2.50;;;13.50;99.90;;;;;;7345165;32;20162;-63
2022/06/15 00:59:24;;;;;;;5.03;2.25;;;13.50;99.90;;;;;;7339262;32;20510;-63
2022/06/15 01:03:26;;;;;;;5.72;2.45;;;13.40;99.90;;;;;;7341978;32;20112;-61
2022/06/15 01:07:48;;;;;;;6.35;2.28;;;13.30;99.90;;;;;;7347092;32;20222;-62
2022/06/15 01:12:01;;;;;;;6.87;2.08;;;13.20;99.90;;;;;;7338245;32;20685;-63
2022/06/15 01:16:39;;;;;;;5.47;2.28;;;13.10;99.90;;;;;;7350395;32;20114;-63
2022/06/15 01:20:48;;;;;;;6.82;2.15;;;13.10;99.90;;;;;;7343361;32;20557;-63
2022/06/15 01:25:28;;;;;;;4.90;2.47;;;13.00;99.90;;;;;;7345075;32;20564;-63
2022/06/15 01:29:58;;;;;;;6.12;2.42;;;12.80;99.90;;;;;;7341339;32;20613;-63
2022/06/15 01:34:06;;;;;;;6.93;2.83;;;12.70;99.90;;;;;;7344059;32;20498;-63
2022/06/15 01:38:20;;;;;;;8.32;2.50;;;12.60;99.90;;;;;;7340955;32;20115;-64
2022/06/15 01:42:24;;;;;;;9.30;2.70;;;12.50;99.90;;;;;;7345889;32;20107;-63
2022/06/15 01:46:27;;;;;;;7.65;2.55;;;12.40;99.90;;;;;;7338230;32;20136;-63
2022/06/15 01:50:39;;;;;;;5.72;2.42;;;12.20;99.90;;;;;;7343696;32;20545;-62
2022/06/15 01:54:47;;;;;;;8.40;2.87;;;12.10;99.90;;;;;;7337375;32;20186;-62
2022/06/15 01:58:57;;;;;;;3.85;2.30;;;12.00;99.90;;;;;;7341754;32;20142;-63
2022/06/15 02:03:22;;;;;;;4.55;2.30;;;12.00;99.90;;;;;;7343734;32;20503;-61
2022/06/15 02:07:34;;;;;;;5.85;2.78;;;11.80;99.90;;;;;;7343144;32;20311;-63
2022/06/15 02:11:40;;;;;;;8.13;2.60;;;11.50;99.90;;;;;;7346916;32;20261;-62
2022/06/15 02:15:46;;;;;;;6.78;2.80;;;11.40;99.90;;;;;;7335374;32;20138;-62
2022/06/15 02:19:51;;;;;;;7.05;3.62;;;11.40;99.90;;;;;;7341963;32;21186;-63
2022/06/15 02:23:57;;;;;;;8.20;3.60;;;11.40;99.90;;;;;;7340010;32;20130;-62
2022/06/15 02:28:01;;;;;;;5.82;2.90;;;11.20;99.90;;;;;;7344587;32;20149;-64
2022/06/15 02:32:08;;;;;;;6.43;3.37;;;11.10;99.90;;;;;;7340293;32;20133;-62
2022/06/15 02:36:10;;;;;;;6.30;3.10;;;11.00;99.90;;;;;;7345266;32;20095;-62
2022/06/15 02:40:15;;;;;;;9.02;3.30;;;10.90;99.90;;;;;;7341971;32;20198;-61
2022/06/15 02:44:17;;;;;;;5.80;3.12;;;10.90;99.90;;;;;;7339965;32;20182;-62
2022/06/15 02:48:20;;;;;;;7.55;3.55;;;10.80;99.90;;;;;;7338535;32;20103;-63
2022/06/15 02:52:28;;;;;;;6.22;3.00;;;10.70;99.90;;;;;;7338727;32;20221;-62
2022/06/15 02:56:31;;;;;;;7.82;3.22;;;10.60;99.90;;;;;;7336748;32;20208;-63
2022/06/15 03:00:34;;;;;;;8.25;3.50;;;10.60;99.90;;;;;;7337388;32;20280;-62
2022/06/15 03:04:35;;;;;;;5.87;3.50;;;10.50;99.90;;;;;;7335459;32;20122;-61
2022/06/15 03:08:37;;;;;;;5.82;3.40;;;10.30;99.90;;;;;;7345684;32;20192;-63
2022/06/15 03:12:39;;;;;;;8.98;3.87;;;10.30;99.90;;;;;;7339287;32;20137;-62
2022/06/15 03:16:47;;;;;;;6.45;3.62;;;10.20;99.90;;;;;;7351300;32;20174;-61
2022/06/15 03:20:49;;;;;;;6.97;3.50;;;10.20;99.90;;;;;;7344837;32;20121;-62
2022/06/15 03:24:51;;;;;;;11.07;3.92;;;10.10;99.90;;;;;;7335591;32;20130;-63
2022/06/15 03:28:52;;;;;;;6.78;3.47;;;10.00;99.90;;;;;;7345318;32;20224;-62
2022/06/15 03:32:54;;;;;;;8.40;4.20;;;10.00;99.90;;;;;;7340579;32;20125;-62
2022/06/15 03:36:56;;;;;;;7.43;3.72;;;10.00;99.90;;;;;;7348898;32;20126;-63
2022/06/15 03:40:58;;;;;;;10.05;4.18;;;10.00;99.90;;;;;;7345095;32;20111;-62
2022/06/15 03:45:00;;;;;;;7.47;3.75;;;10.00;99.90;;;;;;7337215;32;20107;-61
2022/06/15 03:49:02;;;;;;;8.45;4.50;;;10.00;99.90;;;;;;7342734;32;20202;-62
2022/06/15 03:53:05;;;;;;;5.65;3.62;;;10.10;99.90;;;;;;7339917;32;20552;-62
2022/06/15 03:57:09;;;;;;;6.72;4.37;;;10.00;99.90;;;;;;7345373;32;20100;-64
2022/06/15 04:01:11;;;;;;;8.93;3.80;;;10.10;99.90;;;;;;7344867;32;20588;-63
2022/06/15 04:05:19;;;;;;;9.45;5.07;;;10.10;99.90;;;;;;7338598;32;22220;-62
2022/06/15 04:09:22;;;;;;;8.20;4.87;;;10.20;99.90;;;;;;7336897;32;20122;-63
2022/06/15 04:13:24;;;;;;;6.18;4.18;;;10.30;99.90;;;;;;7339413;32;20131;-63
2022/06/15 04:17:26;;;;;;;12.30;4.90;;;10.40;99.90;;;;;;7335157;32;20100;-62
2022/06/15 04:21:28;;;;;;;7.57;4.70;;;10.60;99.90;;;;;;7354216;32;20194;-62
2022/06/15 04:25:33;;;;;;;7.25;4.50;;;10.70;99.90;;;;;;7342256;32;20150;-67
2022/06/15 04:29:34;;;;;;;7.65;4.35;;;10.90;99.90;;;;;;7339974;32;20117;-66
2022/06/15 04:33:36;;;;;;;11.35;5.05;;;11.20;99.90;;;;;;7344771;32;20158;-65
2022/06/15 04:37:38;;;;;;;10.18;4.85;;;11.50;99.90;;;;;;7342698;32;20104;-67
2022/06/15 04:41:41;;;;;;;9.85;4.60;;;11.90;99.90;;;;;;7350279;32;20249;-65
2022/06/15 04:45:42;;;;;;;9.52;4.47;;;12.30;99.90;;;;;;7347988;32;20645;-67
2022/06/15 04:49:44;;;;;;;8.52;3.97;;;12.70;99.90;;;;;;7343809;32;20200;-65
2022/06/15 04:53:46;;;;;;;7.07;4.15;;;13.10;99.90;;;;;;7352120;32;20573;-66
2022/06/15 04:57:53;;;;;;;7.10;3.33;;;13.50;99.90;;;;;;7346795;32;20095;-65
2022/06/15 05:01:55;;;;;;;19.93;12.13;;;14.10;99.90;;;;;;7338035;32;20107;-66
2022/06/15 05:05:58;;;;;;;8.52;4.05;;;14.20;99.90;;;;;;7337167;32;20187;-66
2022/06/15 05:10:00;;;;;;;10.40;3.90;;;14.80;99.90;;;;;;7339285;32;20118;-65
2022/06/15 05:14:03;;;;;;;12.82;4.97;;;15.20;99.90;;;;;;7342105;32;20531;-64
2022/06/15 05:18:07;;;;;;;9.80;4.00;;;15.60;99.90;;;;;;7341706;32;20161;-64
2022/06/15 05:22:09;;;;;;;10.90;4.00;;;15.20;99.90;;;;;;7337956;32;20600;-64
2022/06/15 05:26:11;;;;;;;10.30;3.90;;;15.00;99.90;;;;;;7336101;32;20124;-64
2022/06/15 05:30:13;;;;;;;8.25;4.40;;;15.00;99.90;;;;;;7341666;32;20638;-64
2022/06/15 05:34:15;;;;;;;8.88;3.62;;;14.90;99.90;;;;;;7335764;32;20103;-64
2022/06/15 05:38:16;;;;;;;9.38;3.97;;;15.00;99.90;;;;;;7337054;32;20114;-65
2022/06/15 05:42:18;;;;;;;10.35;3.70;;;15.20;99.90;;;;;;7337087;32;20129;-65
2022/06/15 05:46:30;;;;;;;7.10;3.75;;;15.30;99.90;;;;;;7329447;32;20111;-64
2022/06/15 05:50:32;;;;;;;6.75;3.55;;;15.30;99.90;;;;;;7334712;32;20761;-65
2022/06/15 05:54:33;;;;;;;7.20;3.90;;;15.50;99.90;;;;;;7341746;32;20121;-64
2022/06/15 05:58:35;;;;;;;7.75;3.50;;;15.70;99.90;;;;;;7336583;32;20575;-64
2022/06/15 06:02:37;;;;;;;12.43;5.72;;;15.80;99.90;;;;;;7334341;32;20118;-64
2022/06/15 06:06:39;;;;;;;10.98;5.20;;;16.00;99.90;;;;;;7331801;32;20122;-64
2022/06/15 06:10:41;;;;;;;7.93;4.40;;;16.30;99.90;;;;;;7328854;32;20131;-64
2022/06/15 06:14:43;;;;;;;8.43;3.95;;;16.60;99.90;;;;;;7335200;32;20250;-64
2022/06/15 06:18:45;;;;;;;6.03;3.50;;;16.80;99.90;;;;;;7317307;32;20103;-64
2022/06/15 06:22:46;;;;;;;11.68;3.37;;;17.20;99.90;;;;;;7329486;32;20842;-64
2022/06/15 06:26:48;;;;;;;9.80;3.72;;;17.40;99.90;;;;;;7336037;32;20125;-64
2022/06/15 06:30:50;;;;;;;10.70;3.53;;;17.50;99.90;;;;;;7328494;32;20799;-64
2022/06/15 06:34:55;;;;;;;6.45;3.30;;;17.80;99.90;;;;;;7340688;32;20185;-64
2022/06/15 06:38:59;;;;;;;6.15;2.60;;;17.90;99.90;;;;;;7341145;32;20099;-64
2022/06/15 06:43:01;;;;;;;5.85;3.35;;;18.10;99.90;;;;;;7332312;32;20100;-65
2022/06/15 06:47:04;;;;;;;8.48;3.10;;;18.10;99.90;;;;;;7340659;32;20538;-64
2022/06/15 06:51:07;;;;;;;11.05;3.62;;;18.20;99.90;;;;;;7346171;32;20219;-65
2022/06/15 06:55:09;;;;;;;8.32;2.92;;;18.30;99.90;;;;;;7337207;32;20150;-64
2022/06/15 06:59:13;;;;;;;7.95;3.08;;;18.50;99.90;;;;;;7335273;32;20130;-64
2022/06/15 07:03:14;;;;;;;10.52;2.90;;;18.50;99.90;;;;;;7338400;32;20135;-65
2022/06/15 07:07:16;;;;;;;6.15;2.83;;;18.60;99.90;;;;;;7329143;32;21980;-66
2022/06/15 07:11:18;;;;;;;6.72;2.97;;;18.70;99.90;;;;;;7338388;32;20131;-65
2022/06/15 07:15:20;;;;;;;6.22;2.90;;;18.90;99.90;;;;;;7339764;32;20099;-64
2022/06/15 07:19:22;;;;;;;17.33;11.63;;;19.20;99.90;;;;;;7334692;32;20129;-66
2022/06/15 07:23:24;;;;;;;9.80;2.85;;;19.40;99.90;;;;;;7332621;32;20126;-65
2022/06/15 07:27:26;;;;;;;7.28;2.50;;;19.70;99.90;;;;;;7344697;32;20486;-65
2022/06/15 07:31:35;;;;;;;5.47;2.45;;;19.80;99.90;;;;;;7341923;32;20202;-64
2022/06/15 07:35:38;;;;;;;5.57;2.03;;;19.80;99.90;;;;;;7339577;32;20541;-65
2022/06/15 07:39:41;;;;;;;5.43;2.05;;;20.10;99.90;;;;;;7336788;32;20233;-65
2022/06/15 07:43:43;;;;;;;7.75;2.20;;;20.10;99.90;;;;;;7342269;32;20194;-64
2022/06/15 07:52:06;;;;;;;6.90;2.10;;;20.50;99.90;;;;;;7337851;32;20135;-64
2022/06/15 07:56:08;;;;;;;5.00;2.20;;;20.60;99.90;;;;;;7344586;32;20144;-65
2022/06/15 08:00:10;;;;;;;11.12;2.20;;;20.70;99.90;;;;;;7347335;32;20124;-64
2022/06/15 08:04:14;;;;;;;9.18;2.55;;;20.90;99.90;;;;;;7337984;32;20157;-65
2022/06/15 08:08:20;;;;;;;7.00;2.10;;;21.00;99.90;;;;;;7348602;32;20104;-64
2022/06/15 08:12:23;;;;;;;6.20;2.37;;;21.10;99.90;;;;;;7334754;32;20519;-65
2022/06/15 08:16:24;;;;;;;7.32;2.10;;;21.10;99.90;;;;;;7343866;32;20144;-65
2022/06/15 08:20:35;;;;;;;6.87;2.40;;;21.20;99.90;;;;;;7342541;32;20152;-65
2022/06/15 08:24:38;;;;;;;5.85;1.98;;;21.50;99.90;;;;;;7346351;32;20108;-66
2022/06/15 08:28:43;;;;;;;4.20;1.80;;;21.60;99.90;;;;;;7345560;32;20095;-65
2022/06/15 08:32:45;;;;;;;5.50;1.90;;;22.00;99.90;;;;;;7339312;32;20126;-65
2022/06/15 08:36:46;;;;;;;5.82;2.15;;;22.20;99.90;;;;;;7343846;32;20771;-66
2022/06/15 08:40:52;;;;;;;7.85;2.30;;;22.50;99.90;;;;;;7338031;32;20652;-65
2022/06/15 08:45:18;;;;;;;5.55;2.03;;;22.70;99.90;;;;;;7348578;32;20495;-65
2022/06/15 08:49:48;;;;;;;6.15;1.67;;;23.00;99.90;;;;;;7351621;32;20632;-65
2022/06/15 08:54:02;;;;;;;3.65;1.80;;;23.30;99.90;;;;;;7346794;32;20881;-65
2022/06/15 08:58:28;;;;;;;6.37;1.83;;;23.80;99.90;;;;;;7343532;32;20134;-66
2022/06/15 09:02:47;;;;;;;6.50;2.00;;;24.10;99.90;;;;;;7339027;32;20107;-65
2022/06/15 09:07:09;;;;;;;6.07;1.73;;;24.60;99.90;;;;;;7343667;32;20111;-66
2022/06/15 09:11:46;;;;;;;6.03;1.70;;;24.80;97.90;;;;;;7332329;32;20096;-65
2022/06/15 09:15:53;;;;;;;5.97;2.00;;;24.80;95.50;;;;;;7339167;32;20233;-65
2022/06/15 09:20:03;;;;;;;7.87;2.00;;;24.40;94.50;;;;;;7336532;32;20099;-65
2022/06/15 09:24:16;;;;;;;9.05;2.10;;;24.60;95.10;;;;;;7337880;32;20092;-65
2022/06/15 09:28:34;;;;;;;5.90;1.80;;;24.70;93.20;;;;;;7332911;32;20737;-65
2022/06/15 09:32:41;;;;;;;4.85;1.67;;;24.80;92.90;;;;;;7332942;32;20571;-66
2022/06/15 09:36:48;;;;;;;7.68;2.08;;;25.40;91.00;;;;;;7331872;32;20209;-64
2022/06/15 09:40:55;;;;;;;8.32;1.87;;;25.80;90.10;;;;;;7338583;32;20542;-64
2022/06/15 09:45:25;;;;;;;6.60;1.70;;;26.10;89.80;;;;;;7336578;32;20149;-65
2022/06/15 09:49:55;;;;;;;8.77;1.95;;;26.50;88.50;;;;;;7328524;32;20099;-65
2022/06/15 09:54:20;;;;;;;6.90;1.90;;;27.00;83.60;;;;;;7335865;32;20511;-64
2022/06/15 09:58:26;;;;;;;5.15;1.75;;;27.60;84.70;;;;;;7336577;32;20127;-65
2022/06/15 10:02:31;;;;;;;9.35;2.10;;;27.10;81.70;;;;;;7335692;32;20122;-65
2022/06/15 10:06:51;;;;;;;7.70;1.50;;;27.20;79.00;;;;;;7335840;32;20222;-66
2022/06/15 10:10:57;;;;;;;8.73;1.83;;;27.10;78.90;;;;;;7337611;32;20820;-65
2022/06/15 10:15:08;;;;;;;7.47;1.60;;;26.80;73.50;;;;;;7332657;32;20391;-65
2022/06/15 10:19:13;;;;;;;5.87;1.60;;;27.20;78.20;;;;;;7345428;32;20125;-65
2022/06/15 10:23:22;;;;;;;8.45;1.80;;;27.50;78.70;;;;;;7349588;32;20250;-65
2022/06/15 10:27:24;;;;;;;6.78;1.37;;;27.60;74.50;;;;;;7337517;32;20135;-65
2022/06/15 10:31:32;;;;;;;5.37;1.52;;;27.70;73.50;;;;;;7338424;32;20121;-65
2022/06/15 10:35:35;;;;;;;5.12;1.90;;;27.10;65.50;;;;;;7340044;32;20364;-64
2022/06/15 10:39:42;;;;;;;4.60;1.55;;;27.70;68.30;;;;;;7335026;32;20132;-65
2022/06/15 10:43:44;;;;;;;3.58;1.33;;;28.10;70.00;;;;;;7344363;32;20218;-65
2022/06/15 10:48:20;;;;;;;6.65;1.95;;;28.70;67.80;;;;;;7339365;32;20582;-65
2022/06/15 10:52:26;;;;;;;8.18;2.53;;;28.30;66.30;;;;;;7342548;32;20153;-64
2022/06/15 11:05:25;;;;;;;8.02;1.58;;;28.20;65.60;;;;;;7340277;32;20257;-66
2022/06/15 11:09:41;;;;;;;6.03;1.73;;;28.40;67.50;;;;;;7343556;32;20127;-66
2022/06/15 11:13:54;;;;;;;6.78;2.45;;;28.20;67.50;;;;;;7344313;32;20141;-66
2022/06/15 11:18:01;;;;;;;6.00;2.12;;;27.80;67.80;;;;;;7346719;32;20168;-65
2022/06/15 11:22:11;;;;;;;6.80;1.77;;;27.70;61.70;;;;;;7341388;32;20635;-67
2022/06/15 11:31:16;;;;;;;3.67;1.62;;;27.70;66.90;;;;;;7334054;32;20099;-66
2022/06/15 11:35:39;;;;;;;9.32;2.50;;;27.50;63.90;;;;;;7334417;32;20268;-65
2022/06/15 11:39:56;;;;;;;6.82;3.45;;;27.10;63.30;;;;;;7339882;32;20131;-66
2022/06/15 11:44:00;;;;;;;5.93;1.98;;;27.00;63.20;;;;;;7335011;32;20107;-66
2022/06/15 11:48:25;;;;;;;4.35;1.55;;;27.10;67.20;;;;;;7335553;32;20740;-64
2022/06/15 11:52:52;;;;;;;3.85;1.52;;;27.30;65.40;;;;;;7337379;32;20501;-64
2022/06/15 11:57:13;;;;;;;7.53;1.50;;;27.50;64.40;;;;;;7339325;32;20122;-65
2022/06/15 12:01:48;;;;;;;7.20;1.58;;;27.50;62.80;;;;;;7332987;32;20321;-64
2022/06/15 12:06:05;;;;;;;8.52;1.62;;;27.50;64.40;;;;;;7340040;32;20223;-65
2022/06/15 12:10:13;;;;;;;6.57;1.70;;;27.50;67.50;;;;;;7341590;32;20130;-65
2022/06/15 12:14:43;;;;;;;6.32;1.52;;;27.40;64.10;;;;;;7333376;32;20666;-65
2022/06/15 12:18:54;;;;;;;4.57;1.60;;;27.60;64.30;;;;;;7322383;32;20620;-65
2022/06/15 12:23:20;;;;;;;6.80;1.70;;;27.30;60.20;;;;;;7310555;32;20167;-65
2022/06/15 12:27:30;;;;;;;5.45;1.83;;;27.30;60.80;;;;;;7344178;32;20294;-65
2022/06/15 12:36:40;;;;;;;8.25;1.62;;;27.60;65.00;;;;;;7336954;32;24298;-64
2022/06/15 12:40:49;;;;;;;2.70;1.50;;;27.50;63.20;;;;;;7337184;32;21339;-65
2022/06/15 12:44:53;;;;;;;3.47;1.58;;;27.70;62.20;;;;;;7335925;32;20118;-66
2022/06/15 12:49:23;;;;;;;6.75;1.65;;;27.50;62.30;;;;;;7335688;32;20297;-65
2022/06/15 12:53:30;;;;;;;5.47;1.45;;;27.50;62.60;;;;;;7334665;32;21091;-65
2022/06/15 12:57:56;;;;;;;5.15;1.83;;;27.60;63.70;;;;;;7335863;32;20808;-65
2022/06/15 13:02:29;;;;;;;5.97;1.60;;;27.60;60.60;;;;;;7336792;32;20737;-63
2022/06/15 13:06:34;;;;;;;4.90;1.70;;;27.30;60.70;;;;;;7332359;32;20170;-66
2022/06/15 13:10:35;;;;;;;8.82;1.80;;;27.60;64.10;;;;;;7335684;32;20102;-66
2022/06/15 13:14:51;;;;;;;5.18;1.45;;;27.60;60.40;;;;;;7336972;32;20819;-65
2022/06/15 13:18:55;;;;;;;7.68;2.78;;;27.70;60.10;;;;;;7331171;32;20099;-65
2022/06/15 13:22:57;;;;;;;10.02;2.17;;;28.00;64.00;;;;;;7336672;32;20149;-65
2022/06/15 13:27:17;;;;;;;5.68;2.20;;;27.90;62.30;;;;;;7338448;32;20104;-65
2022/06/15 13:31:45;;;;;;;7.28;2.05;;;27.60;59.20;;;;;;7333925;32;20262;-64
2022/06/15 13:36:13;;;;;;;7.28;2.08;;;27.40;61.50;;;;;;7334678;32;20246;-65
2022/06/15 13:40:16;;;;;;;5.05;1.80;;;27.10;60.30;;;;;;7337746;32;20096;-64
2022/06/15 13:44:19;;;;;;;5.37;1.45;;;27.50;63.20;;;;;;7329379;32;20608;-65
2022/06/15 13:48:29;;;;;;;5.37;1.70;;;27.60;63.90;;;;;;7330775;32;20197;-65
2022/06/15 13:52:33;;;;;;;4.12;1.65;;;27.80;61.80;;;;;;7337981;32;20444;-65
2022/06/15 13:57:19;;;;;;;6.07;1.87;;;27.90;61.20;;;;;;7338400;32;20200;-65
2022/06/15 14:01:56;;;;;;;5.75;1.75;;;27.50;58.90;;;;;;7284237;32;20227;-65
2022/06/15 14:06:13;;;;;;;6.82;1.83;;;27.20;59.60;;;;;;7345889;32;20275;-65
2022/06/15 14:10:14;;;;;;;6.50;1.45;;;27.50;59.60;;;;;;7329125;32;20104;-65
2022/06/15 14:14:46;;;;;;;2.62;1.33;;;27.60;61.70;;;;;;7342508;32;20288;-65
2022/06/15 14:18:55;;;;;;;4.10;1.52;;;27.70;63.30;;;;;;7346308;32;20197;-64
2022/06/15 14:22:59;;;;;;;6.62;1.40;;;27.90;60.60;;;;;;7342948;32;20195;-64
2022/06/15 14:27:25;;;;;;;3.45;1.73;;;27.90;60.50;;;;;;7338828;32;20267;-66
2022/06/15 14:31:30;;;;;;;6.37;1.87;;;27.50;59.60;;;;;;7339831;32;20792;-69
2022/06/15 14:35:33;;;;;;;7.00;2.00;;;27.30;60.70;;;;;;7341319;32;20221;-66
2022/06/15 14:39:43;;;;;;;7.50;1.50;;;27.30;58.90;;;;;;7340608;32;20154;-67
2022/06/15 14:43:48;;;;;;;4.25;1.70;;;27.20;61.60;;;;;;7331937;32;20232;-67
2022/06/15 14:47:56;;;;;;;8.05;1.65;;;27.60;60.30;;;;;;7345121;32;20127;-66
2022/06/15 14:52:17;;;;;;;5.03;1.60;;;27.50;60.00;;;;;;7342455;32;20727;-66
2022/06/15 14:56:21;;;;;;;3.83;1.60;;;27.20;60.30;;;;;;7340701;32;20176;-66
2022/06/15 15:00:34;;;;;;;4.95;1.70;;;27.30;58.90;;;;;;7345927;32;20249;-67
2022/06/15 15:04:42;;;;;;;6.37;1.60;;;27.60;62.30;;;;;;7331162;32;20202;-66
2022/06/15 15:08:48;;;;;;;4.15;1.40;;;27.80;60.20;;;;;;7335879;32;20118;-72
2022/06/15 15:12:51;;;;;;;4.68;1.77;;;27.80;59.60;;;;;;7331092;32;20123;-70
2022/06/15 15:16:58;;;;;;;23.17;4.10;;;28.10;59.20;;;;;;7328323;32;20118;-68
2022/06/15 15:21:28;;;;;;;4.80;1.73;;;28.30;61.00;;;;;;7334781;32;20551;-64
2022/06/15 15:25:46;;;;;;;9.88;2.60;;;27.60;59.50;;;;;;7340890;32;20369;-67
2022/06/15 15:34:29;;;;;;;5.25;1.87;;;27.00;62.20;;;;;;7346597;32;20182;-70
2022/06/15 15:38:32;;;;;;;4.20;1.90;;;26.90;63.70;;;;;;7344950;32;20127;-67
2022/06/15 15:42:34;;;;;;;4.50;1.87;;;26.80;63.00;;;;;;7339960;32;20130;-68
2022/06/15 15:46:36;;;;;;;4.22;1.92;;;26.90;63.70;;;;;;7341322;32;20206;-69
2022/06/15 15:50:38;;;;;;;6.32;2.60;;;26.90;63.30;;;;;;7337691;32;20134;-68
2022/06/15 15:54:40;;;;;;;12.82;7.95;;;26.80;63.40;;;;;;7343389;32;20242;-69
2022/06/15 15:58:45;;;;;;;5.03;2.22;;;26.70;62.50;;;;;;7343283;32;20107;-69
2022/06/15 16:02:50;;;;;;;8.23;2.03;;;26.60;65.40;;;;;;7342460;32;20231;-67
2022/06/15 16:06:52;;;;;;;12.05;2.62;;;26.50;63.60;;;;;;7344829;32;20138;-69
2022/06/15 16:10:55;;;;;;;4.57;2.00;;;26.40;61.60;;;;;;7342822;32;20110;-70
2022/06/15 16:14:57;;;;;;;3.95;1.77;;;26.30;64.00;;;;;;7338237;32;20482;-69
2022/06/15 16:19:01;;;;;;;6.50;2.00;;;26.30;65.10;;;;;;7340610;32;20116;-68
2022/06/15 16:23:05;;;;;;;7.70;2.00;;;26.00;64.00;;;;;;7336059;32;20432;-69
2022/06/15 16:27:07;;;;;;;6.05;2.17;;;26.20;66.30;;;;;;7342823;32;20219;-71
2022/06/15 16:31:10;;;;;;;7.25;2.17;;;26.20;66.80;;;;;;7330090;32;20454;-69
2022/06/15 16:35:14;;;;;;;6.28;2.40;;;26.10;65.20;;;;;;7339859;32;20214;-69
2022/06/15 16:39:16;;;;;;;6.53;2.37;;;26.20;66.30;;;;;;7336701;32;20459;-71
2022/06/15 16:43:18;;;;;;;5.57;2.22;;;26.10;66.70;;;;;;7334259;32;20112;-68
2022/06/15 16:47:19;;;;;;;8.02;2.08;;;26.10;67.10;;;;;;7343255;32;20553;-67
2022/06/15 16:51:31;;;;;;;7.53;2.25;;;26.20;66.70;;;;;;7336565;32;20131;-65
2022/06/15 16:55:49;;;;;;;5.40;2.20;;;26.10;67.70;;;;;;7337887;32;20297;-66
2022/06/15 16:59:50;;;;;;;4.10;2.08;;;26.10;69.20;;;;;;7341755;32;20561;-67
2022/06/15 17:03:53;;;;;;;4.12;2.10;;;26.00;68.60;;;;;;7339559;32;20127;-66
2022/06/15 17:07:55;;;;;;;7.07;2.60;;;25.90;67.30;;;;;;7342521;32;20385;-68
2022/06/15 17:11:57;;;;;;;11.15;3.83;;;25.80;70.00;;;;;;7336474;32;20149;-70
2022/06/15 17:16:04;;;;;;;5.90;2.42;;;25.80;68.90;;;;;;7337027;32;20684;-69
2022/06/15 17:20:07;;;;;;;4.53;2.10;;;25.70;67.70;;;;;;7346888;32;20107;-69
2022/06/15 17:24:11;;;;;;;6.35;2.10;;;25.80;66.70;;;;;;7339474;32;20130;-67
2022/06/15 17:28:13;;;;;;;6.03;2.00;;;25.80;67.80;;;;;;7324922;32;20129;-66
2022/06/15 17:32:15;;;;;;;5.68;1.98;;;25.50;69.50;;;;;;7345251;32;20134;-67
2022/06/15 17:36:19;;;;;;;5.60;1.75;;;25.40;70.70;;;;;;7344391;32;20408;-67
2022/06/15 17:40:22;;;;;;;6.18;1.87;;;25.20;72.80;;;;;;7343037;32;20594;-66
2022/06/15 17:44:24;;;;;;;6.12;1.85;;;25.20;73.40;;;;;;7335708;32;20138;-68
2022/06/15 17:48:26;;;;;;;7.60;2.37;;;25.00;73.60;;;;;;7345498;32;20278;-67
2022/06/15 17:52:27;;;;;;;4.35;1.95;;;24.80;74.30;;;;;;7340911;32;20115;-67
2022/06/15 17:56:30;;;;;;;7.15;2.10;;;24.90;74.00;;;;;;7345948;32;20596;-67
2022/06/15 18:00:31;;;;;;;6.47;1.92;;;24.90;73.70;;;;;;7347360;32;20480;-67
2022/06/15 18:04:33;;;;;;;6.55;1.87;;;24.70;74.10;;;;;;7342319;32;20758;-67
2022/06/15 18:08:35;;;;;;;10.90;2.10;;;24.50;75.10;;;;;;7347288;32;20241;-66
2022/06/15 18:12:39;;;;;;;7.62;1.98;;;24.40;76.10;;;;;;7341268;32;20127;-68
2022/06/15 18:16:44;;;;;;;7.22;2.30;;;24.30;76.10;;;;;;7339788;32;20203;-67
2022/06/15 18:20:46;;;;;;;4.22;1.60;;;24.20;77.10;;;;;;7340654;32;20143;-67
2022/06/15 18:24:49;;;;;;;6.53;1.83;;;24.00;77.10;;;;;;7338057;32;20133;-63
2022/06/15 18:28:50;;;;;;;6.20;1.70;;;23.90;79.70;;;;;;7340597;32;20166;-61
2022/06/15 18:32:53;;;;;;;10.73;2.20;;;23.80;80.20;;;;;;7338693;32;20153;-65
2022/06/15 18:36:57;;;;;;;7.18;1.77;;;23.50;82.00;;;;;;7339381;32;20878;-67
2022/06/15 18:40:59;;;;;;;9.00;2.25;;;23.50;81.80;;;;;;7335739;32;20233;-71
2022/06/15 18:49:21;;;;;;;7.18;2.25;;;23.20;83.30;;;;;;7339422;32;20127;-70
2022/06/15 18:53:23;;;;;;;6.00;2.00;;;23.10;85.40;;;;;;7338090;32;20111;-69
2022/06/15 18:57:26;;;;;;;4.32;1.92;;;23.10;86.50;;;;;;7342459;32;20138;-67
2022/06/15 19:01:27;;;;;;;7.80;2.25;;;22.90;88.50;;;;;;7343679;32;20330;-68
2022/06/15 19:05:30;;;;;;;4.53;2.10;;;22.70;91.10;;;;;;7346686;32;20131;-67
2022/06/15 19:09:32;;;;;;;11.20;2.42;;;22.50;94.60;;;;;;7342600;32;20123;-70
2022/06/15 19:13:34;;;;;;;5.80;2.15;;;22.30;97.90;;;;;;7341360;32;20532;-67
2022/06/15 19:17:37;;;;;;;7.15;2.22;;;22.10;99.90;;;;;;7345819;32;20150;-71
2022/06/15 19:21:39;;;;;;;9.45;2.47;;;21.90;99.90;;;;;;7335142;32;20284;-67
2022/06/15 19:25:42;;;;;;;8.98;2.40;;;21.60;99.90;;;;;;7348660;32;20440;-67
2022/06/15 19:29:50;;;;;;;5.22;2.15;;;21.40;99.90;;;;;;7346412;32;20141;-67
2022/06/15 19:33:52;;;;;;;6.15;2.25;;;21.10;99.90;;;;;;7351696;32;20107;-67
2022/06/15 19:37:54;;;;;;;10.60;6.03;;;20.80;99.90;;;;;;7352893;32;20716;-69
2022/06/15 19:42:03;;;;;;;7.82;6.55;;;20.60;99.90;;;;;;7352803;32;20100;-68
2022/06/15 19:46:05;;;;;;;4.53;2.55;;;20.50;99.90;;;;;;7348004;32;20567;-69
2022/06/15 19:50:10;;;;;;;5.68;2.50;;;20.30;99.90;;;;;;7341714;32;20369;-71
2022/06/15 19:54:13;;;;;;;9.52;2.42;;;20.10;99.90;;;;;;7345273;32;20106;-71
2022/06/15 19:58:15;;;;;;;10.82;6.82;;;19.90;99.90;;;;;;7350029;32;20115;-68
2022/06/15 20:02:16;;;;;;;9.20;4.35;;;19.80;99.90;;;;;;7352974;32;20180;-67
2022/06/15 20:06:18;;;;;;;9.25;3.05;;;19.50;99.90;;;;;;7355646;32;20129;-66
2022/06/15 20:10:23;;;;;;;7.60;3.00;;;19.30;99.90;;;;;;7352945;32;20131;-67
2022/06/15 20:14:25;;;;;;;7.03;3.37;;;19.10;99.90;;;;;;7349143;32;20138;-67
2022/06/15 20:18:30;;;;;;;7.10;3.17;;;18.90;99.90;;;;;;7342253;32;20111;-67
2022/06/15 20:22:36;;;;;;;8.88;2.95;;;18.70;99.90;;;;;;7349829;32;20134;-69
2022/06/15 20:26:39;;;;;;;6.35;3.22;;;18.60;99.90;;;;;;7343787;32;20617;-65
2022/06/15 20:30:41;;;;;;;6.87;2.97;;;18.40;99.90;;;;;;7343926;32;20135;-66
2022/06/15 20:34:42;;;;;;;7.32;3.00;;;18.30;99.90;;;;;;7338443;32;20340;-64
2022/06/15 20:38:44;;;;;;;4.93;3.17;;;18.10;99.90;;;;;;7342342;32;20130;-66
2022/06/15 20:42:47;;;;;;;4.72;2.67;;;17.80;99.90;;;;;;7341994;32;20168;-66
2022/06/15 20:47:06;;;;;;;4.82;2.72;;;17.70;99.90;;;;;;7337647;32;20499;-68
2022/06/15 20:51:09;;;;;;;5.32;3.40;;;17.60;99.90;;;;;;7341919;32;20222;-67
2022/06/15 20:55:11;;;;;;;7.85;3.20;;;17.50;99.90;;;;;;7346326;32;20542;-68
2022/06/15 20:59:14;;;;;;;7.12;2.92;;;17.30;99.90;;;;;;7344749;32;20129;-66
2022/06/15 21:03:16;;;;;;;8.63;3.20;;;17.20;99.90;;;;;;7339807;32;20625;-66
2022/06/15 21:07:21;;;;;;;6.03;3.28;;;17.00;99.90;;;;;;7339573;32;20269;-67
2022/06/15 21:20:20;;;;;;;8.65;3.90;;;16.70;99.90;;;;;;7341707;32;20100;-66
2022/06/15 21:24:21;;;;;;;6.10;3.28;;;16.50;99.90;;;;;;7341213;32;20114;-66
2022/06/15 21:28:24;;;;;;;8.07;3.42;;;16.40;99.90;;;;;;7337929;32;20186;-66
2022/06/15 21:32:25;;;;;;;8.93;3.08;;;16.20;99.90;;;;;;7340652;32;20137;-67
2022/06/15 21:36:29;;;;;;;10.77;3.95;;;16.10;99.90;;;;;;7336891;32;20104;-67
2022/06/15 21:40:32;;;;;;;8.98;2.90;;;16.00;99.90;;;;;;7340567;32;20300;-67
2022/06/15 21:44:34;;;;;;;4.75;2.90;;;15.90;99.90;;;;;;7340568;32;20455;-65
2022/06/15 21:48:36;;;;;;;7.82;3.22;;;15.80;99.90;;;;;;7336890;32;20571;-66
2022/06/15 21:52:39;;;;;;;7.85;3.30;;;15.80;99.90;;;;;;7336754;32;20693;-65
2022/06/15 21:56:41;;;;;;;9.48;3.70;;;15.70;99.90;;;;;;7340259;32;20107;-64
2022/06/15 22:00:43;;;;;;;7.62;3.80;;;15.60;99.90;;;;;;7341922;32;20447;-64
2022/06/15 22:04:45;;;;;;;7.35;3.70;;;15.50;99.90;;;;;;7338765;32;20721;-64